Aérodrome :
LOGIN :

S'inscrire | Disclaimer

   EN    FR    IT 

 










Légende :    VFR   VFR Marginal   IFR   IFR Intensif   IFR Très Intensif
Visi : 
Plafond : 
>= 8 km
>= 3000ft
5 à 8 km
1000 à 3000 ft
1500m à 5 km
500 à 1000 ft
800 à 1500m
200 à 500 ft
< 800m
< 200 ft
Symboles :   Orages  Brouillard  Fortes neiges  Fortes précipitations  Vent > 20 kt
SIGMETs :   Divers  Orages  Givrage  Turbulence  Onde Orograph.  Cendres Volcan.






- Altitude de l'aérodrome : 195 ft


LFMY - Salon de Provence

DERNIER METAR :
  • 081430Z AUTO 32007KT 270V350 CAVOK 15/05 Q1013 NOSIG

METARs EXPIRÉS :
  • 081400Z AUTO 30006KT 220V330 9999 FEW043 BKN190 BKN220 16/06 Q1013 NOSIG
  • 081330Z AUTO 31005KT 250V360 9999 FEW042 SCT180 BKN210 16/06 Q1013 NOSIG
  • 081300Z AUTO 30005KT 250V340 9999 SCT035 BKN190 BKN220 16/07 Q1013 NOSIG
  • 081230Z AUTO VRB04KT 9999 SCT032 BKN220 15/07 Q1014 NOSIG
  • 081200Z AUTO 34005KT 290V010 CAVOK 15/07 Q1014 NOSIG
  • 081130Z AUTO 32008KT 280V350 CAVOK 14/07 Q1014 NOSIG

TAF TAF LFMY
Valide du 08 à 15h jusqu'au 09 à 15h UTC


081400Z 0815/0915 31007KT CAVOK TX14/0914Z TN05/0905Z
BECMG 0913/0915 33020G30KT



MET'MAP, la Météo Aéronautique d'un coup d'oeil ! - Copyright ORBIFLY Décembre 2007 - Disclaimer

ORBIFLY MET'MAP TEAM :

Programmation & Développement : Alexandra Zaïnal
Sur une idée originale de : Baudouin d'Aumeries
Assistance à la programmation : Marc-Olivier Méhu
Soutien technique & logistique : Manuel Goepfert

Contact : metmap@orbifly.com




SOURCES & CREDITS :

   NOAA